• Join FlightAware (Why Join?)
  • Login
  • US Flag 
10:41PM EDT


 

Airport Tracker/Info


-or-


 

Live Flight TrackerFlight Track Log ✈ AWE4079 ✈ 26-May-2013 ✈ KMHT - KPHL

Flight Track Log - Related Links

Times and Time Zones

All times are in EDT time to prevent confusion due to time zone crossing. See the AWE4079 flight status page for this flight to view local times or setup timezone preferences in your user account.

Time Position Orientation Groundspeed Altitude Reporting Facility
EDT Latitude Longitude Course Direction KTS MPH feet Rate Location/Type
09:22AM 42.9500 -71.4333 273° West 156 180 1,100  Level KA90
09:24AM 42.9969 -71.5261 305° West 181 208 5,000 2,280 Climbing Boston Center
09:25AM 42.9492 -71.8925 279° West  Level FlightAware Approximate
09:25AM 43.0142 -71.6081 286° West 236 272 7,300  Level Boston Center
09:26AM 42.9501 -72.0471 270° West  Level FlightAware Approximate
09:26AM 43.0150 -71.7244 271° West 276 318 10,800  Level Boston Center
09:27AM 42.9500 -72.2018 270° West  Level FlightAware Approximate
09:27AM 43.0156 -71.8211 270° West 289 333 13,200  Level Boston Center
09:28AM 42.9560 -72.3562 273° West  Level FlightAware Approximate
09:28AM 43.0142 -71.9572 269° West 319 367 15,300  Level Boston Center
09:29AM 43.0125 -72.0708 269° West 335 386 17,100 1,860 Climbing Boston Center
09:30AM 43.0128 -72.2158 270° West 347 399 19,100 2,160 Climbing Boston Center
09:31AM 43.0153 -72.3492 272° West 347 399 21,500 2,160 Climbing Boston Center
09:32AM 43.0153 -72.4742 270° West 341 392 23,500 1,200 Climbing Boston Center
09:33AM 43.0150 -72.6019 270° West 341 392 24,000 300 Climbing Boston Center
09:34AM 43.0044 -72.7325 264° West 347 399 24,100 660 Climbing Boston Center
09:35AM 43.0039 -72.8631 270° West 347 399 25,400 900 Climbing Boston Center
09:36AM 43.0014 -72.9708 268° West 347 399 26,000 300 Climbing Boston Center
09:37AM 43.0006 -73.1300 270° West 367 422 26,000  Level Boston Center
09:38AM 42.9997 -73.2661 270° West 372 428 26,000  Level Boston Center
09:39AM 42.9611 -73.4047 249° West 358 412 26,000  Level Boston Center
09:40AM 42.8997 -73.5228 235° Southwest 358 412 26,000  Level Boston Center
09:41AM 42.8444 -73.6294 235° Southwest 372 428 26,000  Level Boston Center
09:42AM 42.7722 -73.7553 232° Southwest 388 447 26,000  Level Boston Center
09:43AM 42.7122 -73.8756 236° Southwest 394 453 26,000  Level Boston Center
09:44AM 42.6586 -73.9872 237° Southwest 382 440 26,000  Level Boston Center
09:45AM 42.6031 -74.1014 237° Southwest 370 426 26,000  Level Boston Center
09:46AM 42.5533 -74.2072 237° Southwest 370 426 26,000  Level Boston Center
09:47AM 42.4953 -74.3267 237° Southwest 370 426 26,000  Level Boston Center
09:48AM 42.4283 -74.4569 235° Southwest 376 433 26,000 -660 Level Boston Center
09:50AM 42.2900 -74.6731 229° Southwest 383 441 24,000 -1,200 Descending New York Center
09:51AM 42.2181 -74.7750 226° Southwest 383 441 22,400 -1,620 Descending New York Center
09:52AM 42.1481 -74.8742 226° Southwest 383 441 20,800 -1,500 Descending New York Center
09:53AM 42.0844 -74.9681 228° Southwest 383 441 19,400 -900 Descending New York Center
09:54AM 42.0011 -75.0883 227° Southwest 396 456 19,000 -240 Descending New York Center
09:55AM 41.9189 -75.1694 216° Southwest 396 456 19,000 -480 Level New York Center
09:56AM 41.8244 -75.2494 212° Southwest 407 468 18,100 -1,380 Descending New York Center
09:57AM 41.7214 -75.3314 211° Southwest 412 474 16,300 -1,800 Descending New York Center
09:58AM 41.6331 -75.4031 211° Southwest 391 450 14,500 -1,680 Descending New York Center
09:59AM 41.5428 -75.4744 211° Southwest 385 443 13,000 -1,260 Descending New York Center
10:00AM 41.4675 -75.5356 211° Southwest 375 432 12,000 -540 Descending New York Center
10:01AM 41.3814 -75.6042 211° Southwest 375 432 12,000  Level New York Center
10:02AM 41.2931 -75.6750 211° Southwest 380 437 12,000  Level New York Center
10:03AM 41.1786 -75.6750 180° South 360 414 12,000  Level New York Center
10:04AM 41.0736 -75.6428 167° South 368 423 12,100  Climbing New York Center
10:05AM 40.9689 -75.6078 166° South 396 456 12,000 -60 Descending New York Center
10:06AM 40.8642 -75.5700 165° South 396 456 12,000  Level New York Center
10:07AM 40.7675 -75.5386 166° South 391 450 12,000 -300 Level New York Center
10:08AM 40.6625 -75.5039 166° South 391 450 11,400 -960 Descending New York Center
10:09AM 40.5700 -75.4756 167° South 372 428 10,100 -660 Descending New York Center
10:10AM 40.4836 -75.4453 165° South 336 387 10,100 -60 Level New York Center
10:11AM 40.4019 -75.4014 158° South 324 373 10,000 -240 Descending New York Center
10:12AM 40.3183 -75.3550 157° South 319 367 9,700 -900 Descending New York Center
10:13AM 40.2347 -75.3061 156° South 308 354 8,200 -1,320 Descending New York Center
10:14AM 40.1569 -75.2683 160° South 308 354 7,100 -600 Descending New York Center
10:15AM 40.1117 -75.2003 131° Southeast 272 313 7,000 -480 Descending New York Center
10:15AM 40.1000 -75.1833 132° Southeast 260 299 6,500 -840 Descending Philadelphia TRACON
10:16AM 40.0667 -75.1000 118° Southeast 255 293 6,000 -300 Descending Philadelphia TRACON
10:17AM 40.0333 -75.0167 118° Southeast 233 268 6,000 -300 Level Philadelphia TRACON
10:18AM 40.0167 -74.9500 108° East 215 247 5,400 -900 Descending Philadelphia TRACON
10:19AM 39.9667 -74.9167 153° Southeast 199 229 4,300 -780 Descending Philadelphia TRACON
10:20AM 39.9333 -74.9667 229° Southwest 170 196 4,000 -300 Descending Philadelphia TRACON